Time;durP1;ratioP1;P1;durP2;ratioP2;P2;SDS_P1;SDS_P2;PMS_P1;PMS_P2;Temp;Humidity;BMP_temperature;BMP_pressure;BME280_temperature;BME280_humidity;BME280_pressure;Samples;Min_cycle;Max_cycle;Signal;HPM_P1;HPM_P2
2022/10/26 00:02:07;;;;;;;;;;;;;;;11.29;100.00;101134.38;5055510;28;19993;-73
2022/10/26 00:04:33;;;;;;;;;;;;;;;11.30;100.00;101130.41;5049812;28;20014;-71
2022/10/26 00:06:59;;;;;;;;;;;;;;;11.29;100.00;101134.38;5043405;28;19928;-73
2022/10/26 00:09:26;;;;;;;;;;;;;;;11.34;100.00;101122.13;5052649;28;19932;-72
2022/10/26 00:11:52;;;;;;;;;;;;;;;11.33;100.00;101120.53;5046320;28;19957;-72
2022/10/26 00:14:19;;;;;;;;;;;;;;;11.34;100.00;101124.91;5048829;28;19924;-71
2022/10/26 00:16:45;;;;;;;;;;;;;;;11.33;100.00;101117.75;5052348;28;20313;-72
2022/10/26 00:19:11;;;;;;;;;;;;;;;11.32;100.00;101121.72;5046962;28;19996;-72
2022/10/26 00:21:38;;;;;;;;;;;;;;;11.34;100.00;101106.28;5052219;28;19924;-71
2022/10/26 00:24:04;;;;;;;;;;;;;;;11.36;100.00;101112.22;5051794;28;19924;-73
2022/10/26 00:26:34;;;;;;;;;;;;;;;11.37;100.00;101110.25;5047576;28;19932;-73
2022/10/26 00:29:01;;;;;;;;;;;;;;;11.39;100.00;101116.19;5054241;28;19936;-71
2022/10/26 00:31:27;;;;;;;;;;;;;;;11.40;100.00;101109.44;5044564;28;20001;-72
2022/10/26 00:33:54;;;;;;;;;;;;;;;11.39;100.00;101105.91;5047891;28;19931;-71
2022/10/26 00:36:21;;;;;;;;;;;;;;;11.37;100.00;101104.72;5048217;28;19929;-72
2022/10/26 00:38:48;;;;;;;;;;;;;;;11.39;100.00;101096.78;5048299;28;19931;-71
2022/10/26 00:41:15;;;;;;;;;;;;;;;11.41;100.00;101103.50;5052467;28;19924;-71
2022/10/26 00:43:41;;;;;;;;;;;;;;;11.42;100.00;101104.31;5048235;28;19920;-72
2022/10/26 00:46:11;;;;;;;;;;;;;;;11.43;100.00;101100.34;5049299;28;20359;-73
2022/10/26 00:48:42;;;;;;;;;;;;;;;11.41;100.00;101099.97;5050410;28;19924;-73
2022/10/26 00:51:12;;;;;;;;;;;;;;;11.40;100.00;101106.69;5047366;28;19924;-72
2022/10/26 00:53:38;;;;;;;;;;;;;;;11.40;100.00;101101.94;5049478;28;19931;-72
2022/10/26 00:56:05;;;;;;;;;;;;;;;11.42;100.00;101102.34;5048623;28;19943;-73
2022/10/26 00:58:33;;;;;;;;;;;;;;;11.45;100.00;101109.06;5052436;28;19940;-72
2022/10/26 01:00:59;;;;;;;;;;;;;;;11.43;100.00;101098.38;5048983;28;19944;-73
2022/10/26 01:03:27;;;;;;;;;;;;;;;11.44;100.00;101102.72;5047486;28;20399;-73
2022/10/26 01:05:55;;;;;;;;;;;;;;;11.44;100.00;101099.19;5048658;28;19932;-72
2022/10/26 01:08:22;;;;;;;;;;;;;;;11.45;100.00;101100.75;5052507;28;19966;-73
2022/10/26 01:10:49;;;;;;;;;;;;;;;11.49;100.00;101098.78;5046606;28;19932;-72
2022/10/26 01:13:16;;;;;;;;;;;;;;;11.52;100.00;101103.53;5048829;28;19932;-72
2022/10/26 01:15:42;;;;;;;;;;;;;;;11.50;100.00;101090.06;5048341;28;19921;-74
2022/10/26 01:18:15;;;;;;;;;;;;;;;11.57;100.00;101089.28;5048346;28;19931;-73
2022/10/26 01:20:57;;;;;;;;;;;;;;;11.59;100.00;101089.69;5047441;28;19920;-73
2022/10/26 01:23:33;;;;;;;;;;;;;;;11.60;100.00;101088.50;5046071;28;19943;-72
2022/10/26 01:26:07;;;;;;;;;;;;;;;11.63;100.00;101090.50;5042446;28;19974;-73
2022/10/26 01:28:33;;;;;;;;;;;;;;;11.64;100.00;101086.56;5048963;28;20698;-71
2022/10/26 01:31:02;;;;;;;;;;;;;;;11.67;100.00;101086.56;5051089;28;19925;-73
2022/10/26 01:33:41;;;;;;;;;;;;;;;11.67;100.00;101080.22;5043846;28;19924;-72
2022/10/26 01:36:19;;;;;;;;;;;;;;;11.69;100.00;101075.06;5053264;28;20325;-72
2022/10/26 01:38:48;;;;;;;;;;;;;;;11.68;100.00;101073.50;5050771;28;19932;-72
2022/10/26 01:41:23;;;;;;;;;;;;;;;11.68;100.00;101079.03;5047434;28;19924;-74
2022/10/26 01:43:57;;;;;;;;;;;;;;;11.68;100.00;101065.97;5048052;28;19928;-73
2022/10/26 01:46:25;;;;;;;;;;;;;;;11.69;100.00;101063.97;5049384;28;20997;-73
2022/10/26 01:48:54;;;;;;;;;;;;;;;11.71;100.00;101067.16;5047362;28;20672;-72
2022/10/26 01:51:21;;;;;;;;;;;;;;;11.73;100.00;101060.03;5046253;28;19936;-72
2022/10/26 01:53:47;;;;;;;;;;;;;;;11.77;100.00;101054.47;5044650;28;20029;-73
2022/10/26 01:56:18;;;;;;;;;;;;;;;11.79;100.00;101057.66;5050782;28;19935;-72
2022/10/26 01:58:44;;;;;;;;;;;;;;;11.79;100.00;101052.91;5051524;28;19932;-70
2022/10/26 02:01:17;;;;;;;;;;;;;;;11.81;100.00;101053.28;5061449;28;19931;-71
2022/10/26 02:03:46;;;;;;;;;;;;;;;11.83;100.00;101058.44;5064143;28;19935;-69
2022/10/26 02:06:19;;;;;;;;;;;;;;;11.84;100.00;101049.72;5055195;28;19920;-71
2022/10/26 02:08:46;;;;;;;;;;;;;;;11.88;100.00;101052.50;5086259;28;20355;-69
2022/10/26 02:11:30;;;;;;;;;;;;;;;11.89;100.00;101040.22;5053466;28;19920;-69
2022/10/26 02:14:32;;;;;;;;;;;;;;;11.89;100.00;101037.44;5068702;28;19958;-71
2022/10/26 02:17:04;;;;;;;;;;;;;;;11.91;100.00;101035.06;5032695;28;21502;-70
2022/10/26 02:19:41;;;;;;;;;;;;;;;11.92;100.00;101036.66;5061178;28;19925;-70
2022/10/26 02:22:17;;;;;;;;;;;;;;;11.91;100.00;101027.53;5065037;28;19932;-70
2022/10/26 02:24:45;;;;;;;;;;;;;;;11.92;100.00;101034.66;5060333;28;19924;-71
2022/10/26 02:27:15;;;;;;;;;;;;;;;11.91;100.00;101032.28;5079261;28;19924;-71
2022/10/26 02:29:45;;;;;;;;;;;;;;;11.92;100.00;101029.09;5063885;28;19925;-71
2022/10/26 02:32:12;;;;;;;;;;;;;;;11.92;100.00;101029.09;5060512;28;19924;-70
2022/10/26 02:34:41;;;;;;;;;;;;;;;11.91;100.00;101026.75;5073686;28;20033;-70
2022/10/26 02:37:08;;;;;;;;;;;;;;;11.91;100.00;101021.22;5067192;28;19919;-70
2022/10/26 02:39:35;;;;;;;;;;;;;;;11.94;100.00;101023.16;5069614;28;19924;-71
2022/10/26 02:42:03;;;;;;;;;;;;;;;11.94;100.00;101014.84;5074745;28;19982;-71
2022/10/26 02:44:32;;;;;;;;;;;;;;;11.97;100.00;101014.84;5070663;28;20312;-72
2022/10/26 02:46:58;;;;;;;;;;;;;;;11.95;100.00;101020.00;5074050;28;19920;-72
2022/10/26 02:49:25;;;;;;;;;;;;;;;11.96;100.00;101016.03;5061581;28;19932;-71
2022/10/26 02:52:05;;;;;;;;;;;;;;;11.97;100.00;101016.81;5058530;28;19924;-71
2022/10/26 02:54:45;;;;;;;;;;;;;;;11.95;100.00;101014.44;5070987;28;20304;-71
2022/10/26 02:57:24;;;;;;;;;;;;;;;11.97;100.00;101014.03;5059513;28;19932;-71
2022/10/26 02:59:51;;;;;;;;;;;;;;;11.98;100.00;101012.88;5052434;28;19991;-71
2022/10/26 03:02:19;;;;;;;;;;;;;;;11.99;100.00;101014.44;5076757;28;19919;-70
2022/10/26 03:04:50;;;;;;;;;;;;;;;11.99;100.00;101012.47;5068237;28;19982;-70
2022/10/26 03:07:21;;;;;;;;;;;;;;;12.01;100.00;101006.50;5059750;28;19944;-71
2022/10/26 03:09:47;;;;;;;;;;;;;;;12.03;100.00;101004.94;5057226;28;19932;-70
2022/10/26 03:12:19;;;;;;;;;;;;;;;12.05;100.00;101004.53;5068173;28;20415;-71
2022/10/26 03:14:46;;;;;;;;;;;;;;;12.06;100.00;101000.56;5072874;28;19924;-71
2022/10/26 03:17:12;;;;;;;;;;;;;;;12.08;100.00;100992.66;5068671;28;19950;-70
2022/10/26 03:19:38;;;;;;;;;;;;;;;12.09;100.00;100983.13;5060613;28;19921;-70
2022/10/26 03:22:05;;;;;;;;;;;;;;;12.11;100.00;100989.84;5084040;28;19929;-71
2022/10/26 03:24:31;;;;;;;;;;;;;;;12.10;100.00;100988.28;5065804;28;20044;-70
2022/10/26 03:26:57;;;;;;;;;;;;;;;12.12;100.00;100987.88;5059940;28;20435;-71
2022/10/26 03:29:27;;;;;;;;;;;;;;;12.12;100.00;100985.88;5070414;28;19985;-69
2022/10/26 03:31:54;;;;;;;;;;;;;;;12.14;100.00;100988.25;5066628;28;20575;-71
2022/10/26 03:34:20;;;;;;;;;;;;;;;12.17;100.00;100987.44;5055268;28;19980;-70
2022/10/26 03:36:46;;;;;;;;;;;;;;;12.19;100.00;100991.38;5063200;28;19921;-70
2022/10/26 03:39:13;;;;;;;;;;;;;;;12.21;100.00;100991.78;5066109;28;20377;-70
2022/10/26 03:41:39;;;;;;;;;;;;;;;12.18;100.00;100989.00;5066158;28;20331;-69
2022/10/26 03:44:11;;;;;;;;;;;;;;;12.17;100.00;100993.78;5076244;28;19930;-69
2022/10/26 03:46:38;;;;;;;;;;;;;;;12.20;100.00;100993.00;5069189;28;19960;-70
2022/10/26 03:49:04;;;;;;;;;;;;;;;12.20;100.00;100990.22;5069599;28;19924;-72
2022/10/26 03:51:31;;;;;;;;;;;;;;;12.23;100.00;100989.41;5066304;28;19955;-72
2022/10/26 03:53:57;;;;;;;;;;;;;;;12.25;100.00;100991.78;5050386;28;19917;-73
2022/10/26 03:56:23;;;;;;;;;;;;;;;12.26;100.00;100987.81;5065767;28;20384;-70
2022/10/26 03:58:50;;;;;;;;;;;;;;;12.28;100.00;100985.41;5058481;28;19920;-72
2022/10/26 04:01:16;;;;;;;;;;;;;;;12.34;100.00;100990.16;5052211;28;19920;-71
2022/10/26 04:03:44;;;;;;;;;;;;;;;12.35;100.00;100985.38;5078111;28;20376;-69
2022/10/26 04:06:12;;;;;;;;;;;;;;;12.37;100.00;100989.38;5064318;28;20004;-70
2022/10/26 04:08:39;;;;;;;;;;;;;;;12.37;100.00;100985.78;5057561;28;19924;-69
2022/10/26 04:11:05;;;;;;;;;;;;;;;12.40;100.00;100984.97;5061860;28;19925;-70
2022/10/26 04:13:33;;;;;;;;;;;;;;;12.40;100.00;100982.22;5054595;28;20388;-70
2022/10/26 04:15:59;;;;;;;;;;;;;;;12.40;100.00;100987.75;5063538;28;20366;-70
2022/10/26 04:18:26;;;;;;;;;;;;;;;12.40;100.00;100984.97;5058556;28;19974;-71
2022/10/26 04:20:52;;;;;;;;;;;;;;;12.38;100.00;100985.38;5060001;28;19987;-71
2022/10/26 04:23:19;;;;;;;;;;;;;;;12.37;100.00;100991.34;5062650;28;19931;-70
2022/10/26 04:25:45;;;;;;;;;;;;;;;12.37;100.00;100988.56;5063577;28;19924;-72
2022/10/26 04:28:21;;;;;;;;;;;;;;;12.36;100.00;100987.00;5062376;28;19986;-70
2022/10/26 04:30:47;;;;;;;;;;;;;;;12.36;100.00;100984.97;5058644;28;19920;-71
2022/10/26 04:33:13;;;;;;;;;;;;;;;12.36;100.00;100987.75;5056229;28;19929;-71
2022/10/26 04:35:41;;;;;;;;;;;;;;;12.37;100.00;100986.59;5065591;28;19928;-74
2022/10/26 04:38:08;;;;;;;;;;;;;;;12.40;100.00;100990.53;5068713;28;19966;-70
2022/10/26 04:40:34;;;;;;;;;;;;;;;12.39;100.00;100995.28;5068296;28;19925;-72
2022/10/26 04:43:11;;;;;;;;;;;;;;;12.42;100.00;100988.16;5051677;28;19946;-70
2022/10/26 04:45:37;;;;;;;;;;;;;;;12.42;100.00;100994.47;5069947;28;19920;-68
2022/10/26 04:48:05;;;;;;;;;;;;;;;12.42;100.00;100990.94;5065523;28;19931;-67
2022/10/26 04:50:32;;;;;;;;;;;;;;;12.41;100.00;100989.34;5067370;28;20469;-69
2022/10/26 04:52:59;;;;;;;;;;;;;;;12.40;100.00;100987.75;5067971;28;19924;-71
2022/10/26 04:55:25;;;;;;;;;;;;;;;12.40;100.00;100987.75;5060859;28;19975;-72
2022/10/26 04:57:51;;;;;;;;;;;;;;;12.40;100.00;100984.97;5061958;28;19947;-70
2022/10/26 05:00:23;;;;;;;;;;;;;;;12.37;100.00;100983.81;5089255;28;20019;-72
2022/10/26 05:02:50;;;;;;;;;;;;;;;12.34;100.00;100986.59;5054558;28;20643;-70
2022/10/26 05:05:25;;;;;;;;;;;;;;;12.31;100.00;100990.16;5069864;28;19929;-71
2022/10/26 05:07:55;;;;;;;;;;;;;;;12.30;100.00;100986.63;5062373;28;20343;-70
2022/10/26 05:10:25;;;;;;;;;;;;;;;12.32;100.00;100981.44;5053588;28;20312;-72
2022/10/26 05:12:52;;;;;;;;;;;;;;;12.34;100.00;100978.25;5061254;28;19928;-71
2022/10/26 05:15:18;;;;;;;;;;;;;;;12.34;100.00;100978.25;5073266;28;20369;-71
2022/10/26 05:17:45;;;;;;;;;;;;;;;12.33;100.00;100976.69;5059789;28;19924;-71
2022/10/26 05:20:12;;;;;;;;;;;;;;;12.33;100.00;100974.72;5058747;28;19932;-71
2022/10/26 05:22:39;;;;;;;;;;;;;;;12.34;100.00;100984.63;5059473;28;19986;-70
2022/10/26 05:25:06;;;;;;;;;;;;;;;12.36;100.00;100981.44;5059753;28;19925;-70
2022/10/26 05:27:32;;;;;;;;;;;;;;;12.35;100.00;100982.63;5062923;28;19928;-71
2022/10/26 05:29:59;;;;;;;;;;;;;;;12.37;100.00;100977.47;5062628;28;19920;-71
2022/10/26 05:32:25;;;;;;;;;;;;;;;12.36;100.00;100973.13;5058366;28;20382;-71
2022/10/26 05:34:52;;;;;;;;;;;;;;;12.38;100.00;100979.03;5051457;28;19928;-70
2022/10/26 05:37:18;;;;;;;;;;;;;;;12.39;100.00;100984.19;5062269;28;20399;-68
2022/10/26 05:39:44;;;;;;;;;;;;;;;12.42;100.00;100982.59;5059578;28;19989;-69
2022/10/26 05:42:11;;;;;;;;;;;;;;;12.42;100.00;100986.16;5051974;28;20397;-72
2022/10/26 05:44:37;;;;;;;;;;;;;;;12.45;100.00;100985.34;5065270;28;19991;-71
2022/10/26 05:47:05;;;;;;;;;;;;;;;12.47;100.00;100987.72;5064992;28;19928;-70
2022/10/26 05:49:34;;;;;;;;;;;;;;;12.49;100.00;100990.91;5066309;28;19970;-71
2022/10/26 05:52:00;;;;;;;;;;;;;;;12.47;100.00;100982.97;5057768;28;19929;-70
2022/10/26 05:54:26;;;;;;;;;;;;;;;12.48;100.00;100984.56;5056701;28;19974;-70
2022/10/26 05:56:53;;;;;;;;;;;;;;;12.51;100.00;100982.94;5065440;28;19920;-71
2022/10/26 05:59:19;;;;;;;;;;;;;;;12.54;100.00;100985.72;5065654;28;19985;-69
2022/10/26 06:02:04;;;;;;;;;;;;;;;12.55;100.00;100986.50;5069039;28;19985;-70
2022/10/26 06:04:38;;;;;;;;;;;;;;;12.53;100.00;100981.34;5066790;28;19960;-71
2022/10/26 06:07:15;;;;;;;;;;;;;;;12.53;100.00;100991.66;5072826;28;19923;-71
2022/10/26 06:09:42;;;;;;;;;;;;;;;12.53;100.00;100989.66;5064358;28;19928;-70
2022/10/26 06:12:09;;;;;;;;;;;;;;;12.53;100.00;100988.91;5059801;28;19978;-71
2022/10/26 06:14:38;;;;;;;;;;;;;;;12.52;100.00;100995.66;5074941;28;20410;-71
2022/10/26 06:17:04;;;;;;;;;;;;;;;12.54;100.00;100993.25;5074819;28;19931;-71
2022/10/26 06:19:39;;;;;;;;;;;;;;;12.53;100.00;100991.66;5067772;28;20034;-74
2022/10/26 06:22:12;;;;;;;;;;;;;;;12.53;100.00;100983.34;5069861;28;19959;-73
2022/10/26 06:24:38;;;;;;;;;;;;;;;12.53;100.00;100992.44;5066819;28;20343;-72
2022/10/26 06:27:13;;;;;;;;;;;;;;;12.55;100.00;100989.25;5075182;28;19947;-72
2022/10/26 06:29:53;;;;;;;;;;;;;;;12.56;100.00;100990.88;5065726;28;19969;-71
2022/10/26 06:32:21;;;;;;;;;;;;;;;12.56;100.00;100994.41;5064866;28;19936;-71
2022/10/26 06:34:49;;;;;;;;;;;;;;;12.56;100.00;100985.31;5069756;28;19924;-72
2022/10/26 06:37:16;;;;;;;;;;;;;;;12.57;100.00;100989.66;5069260;28;19967;-69
2022/10/26 06:39:46;;;;;;;;;;;;;;;12.58;100.00;100988.47;5064757;28;19958;-72
2022/10/26 06:42:19;;;;;;;;;;;;;;;12.59;100.00;100990.06;5065978;28;19921;-73
2022/10/26 06:44:46;;;;;;;;;;;;;;;12.61;100.00;100993.22;5066150;28;19931;-71
2022/10/26 06:47:23;;;;;;;;;;;;;;;12.62;100.00;100992.81;5067265;28;19931;-70
2022/10/26 06:50:18;;;;;;;;;;;;;;;12.66;100.00;100995.56;5065368;28;19924;-72
2022/10/26 06:52:52;;;;;;;;;;;;;;;12.67;100.00;100992.41;5048914;28;20380;-71
2022/10/26 06:55:20;;;;;;;;;;;;;;;12.70;100.00;100994.34;5072341;28;20436;-71
2022/10/26 06:57:47;;;;;;;;;;;;;;;12.71;100.00;100998.72;5065975;28;20011;-71
2022/10/26 07:00:14;;;;;;;;;;;;;;;12.74;100.00;100989.59;5067598;28;19932;-71
2022/10/26 07:02:41;;;;;;;;;;;;;;;12.77;100.00;100997.09;5068281;28;20436;-71
2022/10/26 07:05:11;;;;;;;;;;;;;;;12.79;100.00;101002.22;5070496;28;19982;-69
2022/10/26 07:07:40;;;;;;;;;;;;;;;12.81;100.00;101000.66;5075432;28;20369;-71
2022/10/26 07:10:07;;;;;;;;;;;;;;;12.86;100.00;100999.44;5067529;28;19927;-71
2022/10/26 07:12:33;;;;;;;;;;;;;;;12.89;100.00;100990.25;5066220;28;19921;-70
2022/10/26 07:14:59;;;;;;;;;;;;;;;12.91;100.00;100997.00;5073061;28;20022;-72
2022/10/26 07:17:27;;;;;;;;;;;;;;;12.95;100.00;101003.34;5067960;28;19920;-73
2022/10/26 07:19:54;;;;;;;;;;;;;;;13.00;100.00;101007.72;5060667;28;19931;-70
2022/10/26 07:22:20;;;;;;;;;;;;;;;13.06;100.00;101005.28;5064109;28;20438;-71
2022/10/26 07:24:50;;;;;;;;;;;;;;;13.12;100.00;101012.75;5055848;28;20405;-73
2022/10/26 07:27:18;;;;;;;;;;;;;;;13.19;100.00;101018.28;5067528;28;19970;-73
2022/10/26 07:29:45;;;;;;;;;;;;;;;13.25;100.00;101021.41;5067582;28;19928;-70
2022/10/26 07:32:11;;;;;;;;;;;;;;;13.29;100.00;101020.19;5065145;28;19920;-74
2022/10/26 07:34:37;;;;;;;;;;;;;;;13.33;100.00;101018.16;5069029;28;19928;-73
2022/10/26 07:37:03;;;;;;;;;;;;;;;13.39;100.00;101019.31;5072632;28;19928;-70
2022/10/26 07:39:31;;;;;;;;;;;;;;;13.46;100.00;101024.81;5069391;28;19929;-71
2022/10/26 07:41:58;;;;;;;;;;;;;;;13.53;100.00;101015.66;5073787;28;19973;-70
2022/10/26 07:44:24;;;;;;;;;;;;;;;13.58;100.00;101026.31;5070799;28;19933;-71
2022/10/26 07:46:50;;;;;;;;;;;;;;;13.65;100.00;101023.47;5075581;28;19924;-71
2022/10/26 07:49:18;;;;;;;;;;;;;;;13.73;100.00;101019.44;5055449;28;19921;-69
2022/10/26 07:51:45;;;;;;;;;;;;;;;13.81;100.00;101021.75;5067193;28;20010;-70
2022/10/26 07:54:11;;;;;;;;;;;;;;;13.89;100.00;101020.47;5073412;28;20368;-70
2022/10/26 07:56:38;;;;;;;;;;;;;;;13.96;100.00;101019.59;5061773;28;20385;-70
2022/10/26 07:59:04;;;;;;;;;;;;;;;14.00;100.00;101021.16;5062366;28;20027;-70
2022/10/26 08:01:30;;;;;;;;;;;;;;;14.06;100.00;101019.50;5068181;28;19931;-70
2022/10/26 08:03:57;;;;;;;;;;;;;;;14.13;100.00;101021.41;5067639;28;20099;-71
2022/10/26 08:06:23;;;;;;;;;;;;;;;14.20;100.00;101018.53;5052668;28;20415;-71
2022/10/26 08:08:50;;;;;;;;;;;;;;;14.30;100.00;101023.22;5063844;28;19924;-72
2022/10/26 08:11:17;;;;;;;;;;;;;;;14.41;100.00;101030.25;5056288;28;19924;-73
2022/10/26 08:13:43;;;;;;;;;;;;;;;14.51;100.00;101023.78;5069663;28;19925;-72
2022/10/26 08:16:10;;;;;;;;;;;;;;;14.69;100.00;101031.91;5067558;28;19928;-72
2022/10/26 08:18:36;;;;;;;;;;;;;;;14.86;100.00;101020.56;5075901;28;19920;-72
2022/10/26 08:21:04;;;;;;;;;;;;;;;15.05;100.00;101022.66;5069064;28;19928;-72
2022/10/26 08:23:36;;;;;;;;;;;;;;;15.27;100.00;101012.78;5049936;28;20277;-72
2022/10/26 08:26:03;;;;;;;;;;;;;;;15.49;100.00;101016.00;5067496;28;19924;-71
2022/10/26 08:28:29;;;;;;;;;;;;;;;15.73;100.00;101019.63;5064359;28;19924;-72
2022/10/26 08:30:56;;;;;;;;;;;;;;;15.97;100.00;101018.38;5063943;28;20027;-72
2022/10/26 08:33:23;;;;;;;;;;;;;;;16.24;100.00;101024.66;5064859;28;19936;-73
2022/10/26 08:36:03;;;;;;;;;;;;;;;16.49;100.00;101027.75;5067453;28;19924;-70
2022/10/26 08:38:32;;;;;;;;;;;;;;;16.84;100.00;101032.63;5066149;28;20539;-70
2022/10/26 08:41:04;;;;;;;;;;;;;;;17.05;100.00;101046.13;5070035;28;20399;-71
2022/10/26 08:43:38;;;;;;;;;;;;;;;17.26;100.00;101040.84;5066639;28;19924;-72
2022/10/26 08:46:10;;;;;;;;;;;;;;;17.44;100.00;101035.63;5069065;28;19924;-69
2022/10/26 08:48:43;;;;;;;;;;;;;;;17.60;100.00;101035.66;5063157;28;19935;-71
2022/10/26 08:51:12;;;;;;;;;;;;;;;17.82;100.00;101045.06;5058879;28;20614;-72
2022/10/26 08:53:46;;;;;;;;;;;;;;;18.03;100.00;101049.34;5065971;28;19970;-76
2022/10/26 08:56:15;;;;;;;;;;;;;;;18.21;100.00;101049.66;5067221;28;19923;-71
2022/10/26 08:58:46;;;;;;;;;;;;;;;18.36;100.00;101048.06;5076290;28;19928;-71
2022/10/26 09:01:12;;;;;;;;;;;;;;;18.50;100.00;101044.09;5080344;28;19928;-71
2022/10/26 09:03:38;;;;;;;;;;;;;;;18.61;100.00;101050.97;5086596;28;19920;-70
2022/10/26 09:06:15;;;;;;;;;;;;;;;18.77;100.00;101050.91;5070457;28;19924;-70
2022/10/26 09:08:44;;;;;;;;;;;;;;;18.87;100.00;101058.19;5073947;28;20155;-71
2022/10/26 09:11:16;;;;;;;;;;;;;;;19.06;100.00;101054.41;5080475;28;19931;-72
2022/10/26 09:14:01;;;;;;;;;;;;;;;19.24;100.00;101065.84;5083574;28;20296;-71
2022/10/26 09:16:46;;;;;;;;;;;;;;;19.28;100.00;101077.03;5075248;28;19921;-71
2022/10/26 09:19:13;;;;;;;;;;;;;;;19.27;100.00;101081.84;5077421;28;19919;-71
2022/10/26 09:21:42;;;;;;;;;;;;;;;19.49;100.00;101082.75;5077323;28;19971;-72
2022/10/26 09:24:12;;;;;;;;;;;;;;;19.53;100.00;101091.03;5073222;28;20293;-71
2022/10/26 09:26:54;;;;;;;;;;;;;;;19.70;100.00;101098.91;5068048;28;19920;-72
2022/10/26 09:29:25;;;;;;;;;;;;;;;19.75;100.00;101100.38;5078455;28;21602;-69
2022/10/26 09:31:53;;;;;;;;;;;;;;;19.72;100.00;101112.50;5083836;28;19924;-72
2022/10/26 09:34:24;;;;;;;;;;;;;;;19.82;100.00;101109.34;5081628;28;19927;-71
2022/10/26 09:36:52;;;;;;;;;;;;;;;19.96;100.00;101106.06;5079767;28;19928;-70
2022/10/26 09:39:23;;;;;;;;;;;;;;;19.97;100.00;101098.41;5075959;28;20308;-71
2022/10/26 09:41:54;;;;;;;;;;;;;;;19.98;100.00;101109.19;5083904;28;19948;-71
2022/10/26 09:44:26;;;;;;;;;;;;;;;19.96;100.00;101111.69;5082424;28;19928;-71
2022/10/26 09:47:04;;;;;;;;;;;;;;;19.98;100.00;101112.00;5084327;28;19935;-71
2022/10/26 09:49:40;;;;;;;;;;;;;;;20.24;100.00;101116.38;5060012;28;19978;-71
2022/10/26 09:52:06;;;;;;;;;;;;;;;20.27;100.00;101125.91;5069593;28;20365;-71
2022/10/26 09:54:33;;;;;;;;;;;;;;;20.39;100.00;101131.47;5072858;28;19989;-71
2022/10/26 09:57:01;;;;;;;;;;;;;;;20.33;98.56;101130.50;5084427;28;19991;-72
2022/10/26 09:59:29;;;;;;;;;;;;;;;20.62;99.07;101132.31;5085828;28;19931;-72
2022/10/26 10:01:55;;;;;;;;;;;;;;;20.70;97.17;101130.81;5084615;28;19924;-72
2022/10/26 10:04:22;;;;;;;;;;;;;;;20.75;95.99;101130.25;5049925;28;19981;-71
2022/10/26 10:06:50;;;;;;;;;;;;;;;20.95;95.47;101137.13;5077758;28;19920;-71
2022/10/26 10:09:19;;;;;;;;;;;;;;;20.90;94.54;101148.97;5074538;28;19942;-71
2022/10/26 10:11:53;;;;;;;;;;;;;;;20.91;95.51;101152.53;5078344;28;19924;-71
2022/10/26 10:14:24;;;;;;;;;;;;;;;21.14;94.80;101154.91;5074194;28;19924;-70
2022/10/26 10:16:55;;;;;;;;;;;;;;;21.26;94.12;101157.66;5080442;28;19924;-70
2022/10/26 10:19:32;;;;;;;;;;;;;;;21.20;92.68;101164.34;5074444;28;20308;-70
2022/10/26 10:22:00;;;;;;;;;;;;;;;21.40;91.97;101162.75;5073643;28;19928;-70
2022/10/26 10:24:31;;;;;;;;;;;;;;;21.11;93.23;101158.66;5081284;28;19940;-70
2022/10/26 10:27:24;;;;;;;;;;;;;;;21.20;93.38;101162.34;5076016;28;20360;-70
2022/10/26 10:29:54;;;;;;;;;;;;;;;21.35;91.11;101165.38;5066990;28;19931;-71
2022/10/26 10:32:30;;;;;;;;;;;;;;;21.41;91.31;101169.16;5081111;28;19924;-71
2022/10/26 10:35:20;;;;;;;;;;;;;;;21.27;91.40;101169.72;5076843;28;19931;-71
2022/10/26 10:37:49;;;;;;;;;;;;;;;21.32;92.10;101171.91;5070242;28;19927;-70
2022/10/26 10:40:20;;;;;;;;;;;;;;;21.34;93.56;101175.06;5077778;28;19924;-72
2022/10/26 10:42:47;;;;;;;;;;;;;;;21.45;91.88;101175.44;5067620;28;19924;-69
2022/10/26 10:45:33;;;;;;;;;;;;;;;21.53;92.28;101188.78;5080976;28;20006;-71
2022/10/26 10:48:12;;;;;;;;;;;;;;;21.54;92.21;101183.94;5083172;28;19924;-70
2022/10/26 10:50:55;;;;;;;;;;;;;;;21.97;92.27;101172.59;5074314;28;19934;-71
2022/10/26 10:53:33;;;;;;;;;;;;;;;22.14;89.51;101176.72;5074701;28;19920;-70
2022/10/26 10:56:06;;;;;;;;;;;;;;;22.35;87.58;101167.38;5079382;28;19976;-71
2022/10/26 10:58:46;;;;;;;;;;;;;;;22.56;87.66;101172.13;5075297;28;19924;-72
2022/10/26 11:01:17;;;;;;;;;;;;;;;22.55;85.77;101185.44;5071404;28;19929;-70
2022/10/26 11:03:49;;;;;;;;;;;;;;;22.67;86.73;101184.50;5077003;28;19928;-71
2022/10/26 11:06:18;;;;;;;;;;;;;;;22.61;85.22;101199.69;5069282;28;19970;-72
2022/10/26 11:09:14;;;;;;;;;;;;;;;22.75;83.73;101199.09;5068182;28;19960;-72
2022/10/26 11:11:43;;;;;;;;;;;;;;;22.66;84.58;101202.69;5037059;28;19965;-72
2022/10/26 11:14:15;;;;;;;;;;;;;;;22.49;85.89;101209.88;5049312;28;20447;-76
2022/10/26 11:16:50;;;;;;;;;;;;;;;22.68;86.45;101213.50;5040559;28;20400;-72
2022/10/26 11:19:21;;;;;;;;;;;;;;;22.79;85.48;101211.78;5049059;28;20701;-73
2022/10/26 11:21:54;;;;;;;;;;;;;;;22.84;84.59;101213.19;5048882;28;20822;-74
2022/10/26 11:24:39;;;;;;;;;;;;;;;23.14;84.31;101203.78;5054416;28;19983;-74
2022/10/26 11:27:22;;;;;;;;;;;;;;;23.47;83.68;101209.56;5048336;28;19925;-75
2022/10/26 11:29:53;;;;;;;;;;;;;;;23.48;80.20;101211.16;5047633;28;20121;-74
2022/10/26 11:32:32;;;;;;;;;;;;;;;22.62;83.93;101221.78;5046550;28;19925;-72
2022/10/26 11:35:02;;;;;;;;;;;;;;;22.99;84.60;101219.00;5049072;28;19925;-73
2022/10/26 11:37:47;;;;;;;;;;;;;;;23.23;83.19;101223.56;5044082;28;20689;-75
2022/10/26 11:40:13;;;;;;;;;;;;;;;23.37;81.16;101222.94;5046666;28;19928;-75
2022/10/26 11:42:41;;;;;;;;;;;;;;;23.25;81.45;101225.94;5054349;28;19928;-72
2022/10/26 11:45:30;;;;;;;;;;;;;;;23.58;80.54;101227.59;5048059;28;20388;-74
2022/10/26 11:48:02;;;;;;;;;;;;;;;23.64;79.40;101233.38;5053954;28;19924;-73
2022/10/26 11:50:33;;;;;;;;;;;;;;;23.67;79.98;101221.13;5046631;28;19924;-75
2022/10/26 11:52:59;;;;;;;;;;;;;;;23.80;78.27;101231.00;5051399;28;19924;-71
2022/10/26 11:55:27;;;;;;;;;;;;;;;24.05;79.38;101226.97;5047670;28;20261;-71
2022/10/26 11:57:54;;;;;;;;;;;;;;;24.10;77.00;101232.75;5051819;28;19920;-73
2022/10/26 12:00:21;;;;;;;;;;;;;;;24.86;73.49;101230.16;5048036;28;20532;-73
2022/10/26 12:03:03;;;;;;;;;;;;;;;24.54;73.33;101233.78;5045838;28;19920;-73
2022/10/26 12:05:32;;;;;;;;;;;;;;;24.92;72.06;101236.72;5045452;28;20011;-73
2022/10/26 12:08:01;;;;;;;;;;;;;;;24.93;71.39;101237.47;5046991;28;19924;-73
2022/10/26 12:10:30;;;;;;;;;;;;;;;25.00;73.44;101232.22;5074028;28;20722;-73
2022/10/26 12:13:00;;;;;;;;;;;;;;;25.31;70.41;101231.81;5046364;28;19924;-72
2022/10/26 12:15:30;;;;;;;;;;;;;;;25.10;71.37;101228.06;5045218;28;19939;-72
2022/10/26 12:18:15;;;;;;;;;;;;;;;25.06;71.55;101233.13;5047454;28;20869;-73
2022/10/26 12:21:02;;;;;;;;;;;;;;;24.94;71.26;101239.81;5041817;28;19931;-73
2022/10/26 12:23:30;;;;;;;;;;;;;;;25.17;73.99;101231.78;5046564;28;19924;-73
2022/10/26 12:26:22;;;;;;;;;;;;;;;25.64;69.06;101243.00;5046548;28;20006;-74
2022/10/26 12:29:08;;;;;;;;;;;;;;;25.44;69.99;101226.66;5054188;28;19924;-72
2022/10/26 12:31:35;;;;;;;;;;;;;;;25.62;70.95;101239.88;5047977;28;20500;-73
2022/10/26 12:34:02;;;;;;;;;;;;;;;25.34;70.98;101252.75;5051257;28;20300;-74
2022/10/26 12:36:48;;;;;;;;;;;;;;;24.74;73.65;101242.50;5045176;28;19935;-72
2022/10/26 12:39:26;;;;;;;;;;;;;;;24.68;74.19;101250.09;5047836;28;19928;-72
2022/10/26 12:42:05;;;;;;;;;;;;;;;24.84;73.32;101258.13;5047380;28;19924;-71
2022/10/26 12:44:34;;;;;;;;;;;;;;;24.57;75.75;101258.28;5047899;28;19990;-72